Terminal Aerodrome Forecast
Issued by NWS Sterling, VA

Home | Current Version | Previous Version | Text Only | Print | Product List | Glossary On
Versions: 1 2 3 4 5 6 7 8 9 10 11 12 13 14 15 16 17 18 19 20 21 22 23 24 25 26 27
000
FTUS41 KLWX 250902 AAA
TAFBWI
TAF AMD
KBWI 250902Z 2509/2612 08012G20KT 3SM RA SCT003 OVC008
     FM251400 15006KT P6SM SCT003 OVC008
     FM251600 18007KT P6SM BKN008
     FM251800 20008KT 3SM -SHRA SCT008 OVC045
     FM252200 20006KT 5SM -SHRA OVC020
     FM260000 22005KT P6SM BKN025
     FM260100 23005KT P6SM BKN035=

USA.gov is the U.S. government's official web portal to all federal, state and local government web resources and services.